Time;durP1;ratioP1;P1;durP2;ratioP2;P2;SDS_P1;SDS_P2;PMS_P1;PMS_P2;Temp;Humidity;BMP_temperature;BMP_pressure;BME280_temperature;BME280_humidity;BME280_pressure;Samples;Min_cycle;Max_cycle;Signal;HPM_P1;HPM_P2
2021/12/03 00:00:36;;;;;;;13.73;5.32;;;4.00;97.40;;;4.10;47.33;97397.94;6067599;23;20071;-81
2021/12/03 00:03:08;;;;;;;12.48;4.57;;;4.00;97.50;;;3.96;46.71;97400.31;6054976;23;20015;-80
2021/12/03 00:05:34;;;;;;;11.98;4.20;;;4.00;97.00;;;3.91;48.27;97401.13;6044651;23;20031;-80
2021/12/03 00:08:00;;;;;;;14.40;5.18;;;3.90;97.70;;;3.87;47.11;97408.09;6021264;23;20039;-81
2021/12/03 00:10:27;;;;;;;11.15;5.20;;;3.80;97.30;;;3.90;47.92;97410.25;6042498;23;20712;-81
2021/12/03 00:12:54;;;;;;;14.43;4.88;;;3.90;97.70;;;3.88;47.58;97425.78;6042300;23;20039;-81
2021/12/03 00:15:20;;;;;;;17.42;6.40;;;3.80;97.70;;;3.87;47.86;97416.16;6043491;23;20019;-81
2021/12/03 00:17:47;;;;;;;15.63;6.35;;;3.80;97.70;;;3.92;46.96;97416.16;6020375;23;20018;-80
2021/12/03 00:20:14;;;;;;;17.98;6.13;;;3.80;97.40;;;4.04;46.44;97431.19;6042216;23;20030;-81
2021/12/03 00:22:44;;;;;;;19.10;6.43;;;3.80;97.00;;;3.95;47.15;97436.28;6042782;23;20479;-81
2021/12/03 00:25:10;;;;;;;18.15;6.97;;;3.90;97.00;;;3.87;47.46;97439.47;6066718;23;20105;-81
2021/12/03 00:27:38;;;;;;;17.55;7.00;;;3.90;97.30;;;3.85;47.49;97441.63;6019239;23;20050;-80
2021/12/03 00:30:07;;;;;;;15.20;5.00;;;3.90;97.40;;;3.85;47.36;97444.31;6066662;23;20015;-80
2021/12/03 00:32:33;;;;;;;11.02;4.63;;;3.90;97.20;;;3.76;47.74;97453.91;6019789;23;20019;-80
2021/12/03 00:34:59;;;;;;;13.88;4.53;;;3.80;97.20;;;3.76;48.74;97449.34;6065283;23;20018;-80
2021/12/03 00:37:25;;;;;;;14.25;4.72;;;3.70;98.00;;;3.84;48.98;97456.91;6040789;23;20022;-81
2021/12/03 00:39:51;;;;;;;14.52;5.93;;;3.80;98.80;;;3.87;49.35;97460.94;6041203;23;20170;-81
2021/12/03 00:42:18;;;;;;;17.20;5.93;;;3.70;98.80;;;3.87;48.62;97461.75;6040068;23;20022;-80
2021/12/03 00:44:50;;;;;;;16.35;5.22;;;3.80;98.30;;;3.89;48.21;97470.34;6063804;23;20650;-80
2021/12/03 00:47:16;;;;;;;16.05;5.55;;;3.80;98.10;;;3.92;48.35;97477.06;6066011;23;20074;-81
2021/12/03 00:49:43;;;;;;;21.67;5.28;;;3.80;98.10;;;3.91;48.51;97484.28;6040181;23;20371;-81
2021/12/03 00:52:09;;;;;;;8.15;4.55;;;3.80;98.10;;;3.84;47.99;97499.00;6017487;23;20026;-80
2021/12/03 00:54:36;;;;;;;10.05;4.38;;;3.80;97.60;;;3.88;48.22;97495.53;6041652;23;20023;-80
2021/12/03 00:57:03;;;;;;;11.73;4.55;;;3.80;97.70;;;3.80;47.57;97497.94;6042146;23;20019;-80
2021/12/03 00:59:30;;;;;;;12.43;4.25;;;3.80;97.60;;;3.68;48.90;97495.44;6044023;23;20019;-81
2021/12/03 01:01:56;;;;;;;10.38;4.10;;;3.70;98.10;;;3.71;48.38;97505.66;6044243;23;20038;-81
2021/12/03 01:04:22;;;;;;;13.15;3.78;;;3.60;97.90;;;3.74;48.10;97509.69;6018444;23;20033;-81
2021/12/03 01:06:48;;;;;;;13.93;4.38;;;3.70;97.70;;;3.74;49.05;97507.00;6042786;23;20051;-81
2021/12/03 01:09:14;;;;;;;10.38;3.67;;;3.70;98.10;;;3.70;48.49;97512.91;6042847;23;20439;-81
2021/12/03 01:11:40;;;;;;;7.88;4.15;;;3.60;98.00;;;3.68;49.48;97515.03;6042945;23;20075;-81
2021/12/03 01:14:07;;;;;;;15.60;4.38;;;3.60;98.10;;;3.68;49.40;97514.22;6043584;23;20102;-81
2021/12/03 01:16:33;;;;;;;11.70;3.83;;;3.70;98.50;;;3.66;49.34;97509.13;6045615;23;20035;-80
2021/12/03 01:18:59;;;;;;;11.43;3.72;;;3.60;98.10;;;3.72;49.01;97509.97;6022677;23;20022;-81
2021/12/03 01:21:25;;;;;;;8.23;3.58;;;3.70;98.10;;;3.70;49.08;97510.22;6023917;23;20110;-80
2021/12/03 01:23:51;;;;;;;11.13;3.33;;;3.60;98.00;;;3.75;48.94;97504.06;6069999;23;20019;-81
2021/12/03 01:26:17;;;;;;;8.82;3.70;;;3.60;98.30;;;3.74;48.88;97499.78;6045834;23;20021;-80
2021/12/03 01:28:46;;;;;;;11.55;2.67;;;3.60;98.20;;;3.77;49.27;97503.81;6070360;23;20023;-80
2021/12/03 01:31:13;;;;;;;8.18;3.45;;;3.60;98.10;;;3.74;48.42;97504.31;6024192;23;20042;-80
2021/12/03 01:33:39;;;;;;;6.88;2.97;;;3.70;98.00;;;3.71;48.75;97505.66;6047145;23;20080;-80
2021/12/03 01:36:05;;;;;;;14.93;4.43;;;3.70;98.10;;;3.68;48.86;97504.28;6044950;23;20023;-81
2021/12/03 01:38:31;;;;;;;7.32;4.20;;;3.60;98.00;;;3.66;48.98;97501.09;6069358;23;20905;-80
2021/12/03 01:40:57;;;;;;;10.93;3.58;;;3.60;98.20;;;3.62;48.64;97501.88;6045538;23;20014;-81
2021/12/03 01:43:25;;;;;;;6.18;3.05;;;3.60;98.00;;;3.62;48.94;97505.34;6045120;23;20074;-81
2021/12/03 01:45:56;;;;;;;12.45;3.85;;;3.60;98.20;;;3.61;48.77;97500.22;6068665;23;20053;-81
2021/12/03 01:48:22;;;;;;;7.70;3.22;;;3.60;98.00;;;3.56;48.91;97502.88;6054377;23;20767;-81
2021/12/03 01:50:49;;;;;;;11.65;3.78;;;3.50;98.10;;;3.54;49.63;97510.41;6019806;23;20018;-80
2021/12/03 01:53:16;;;;;;;10.30;2.92;;;3.50;98.20;;;3.49;49.00;97503.13;6045384;23;20039;-81
2021/12/03 01:55:43;;;;;;;7.93;3.13;;;3.50;98.10;;;3.48;49.33;97506.88;6043913;23;20038;-81
2021/12/03 01:58:09;;;;;;;9.82;3.53;;;3.40;98.20;;;3.51;49.28;97519.78;6044632;23;20019;-81
2021/12/03 02:00:44;;;;;;;12.38;3.72;;;3.40;98.40;;;3.51;49.25;97518.94;6044993;23;20101;-80
2021/12/03 02:03:14;;;;;;;10.50;4.45;;;3.40;98.60;;;3.46;48.69;97535.81;6077184;23;20406;-81
2021/12/03 02:05:42;;;;;;;12.25;3.33;;;3.40;98.20;;;3.45;49.46;97536.88;6067471;23;20733;-81
2021/12/03 02:08:08;;;;;;;10.32;3.63;;;3.40;98.30;;;3.44;50.04;97544.13;6045115;23;20074;-81
2021/12/03 02:10:34;;;;;;;11.77;4.07;;;3.40;98.50;;;3.51;49.75;97535.03;6041085;23;20026;-80
2021/12/03 02:13:00;;;;;;;10.23;4.28;;;3.40;98.60;;;3.48;49.58;97555.13;6043891;23;20470;-80
2021/12/03 02:15:26;;;;;;;10.63;3.97;;;3.40;98.50;;;3.49;49.43;97556.75;6044786;23;20025;-81
2021/12/03 02:17:52;;;;;;;14.20;4.20;;;3.40;98.50;;;3.49;49.42;97556.75;6044326;23;20081;-80
2021/12/03 02:20:18;;;;;;;14.77;4.18;;;3.40;98.60;;;3.48;49.76;97568.53;6045442;23;20478;-81
2021/12/03 02:22:45;;;;;;;12.43;4.40;;;3.40;98.60;;;3.47;49.82;97574.97;6020555;23;20022;-81
2021/12/03 02:25:20;;;;;;;13.30;3.67;;;3.40;99.00;;;3.46;49.26;97576.84;6021568;23;20025;-81
2021/12/03 02:27:53;;;;;;;12.23;4.85;;;3.40;98.60;;;3.47;50.20;97580.34;6057086;23;20431;-81
2021/12/03 02:30:20;;;;;;;8.32;3.50;;;3.40;98.70;;;3.50;49.75;97585.16;6047247;23;20027;-81
2021/12/03 02:32:49;;;;;;;10.45;3.42;;;3.40;98.80;;;3.50;49.15;97585.16;6046173;23;20058;-81
2021/12/03 02:35:17;;;;;;;5.85;3.13;;;3.40;98.40;;;3.42;49.22;97599.06;6045616;23;20073;-80
2021/12/03 02:37:43;;;;;;;6.97;3.25;;;3.40;98.30;;;3.31;49.13;97600.03;6046262;23;20022;-80
2021/12/03 02:40:09;;;;;;;8.07;3.05;;;3.30;97.70;;;3.30;49.23;97599.22;6046548;23;20462;-81
2021/12/03 02:42:36;;;;;;;9.07;2.95;;;3.30;98.20;;;3.24;49.52;97602.94;6044955;23;20015;-81
2021/12/03 02:45:03;;;;;;;9.98;3.28;;;3.30;98.00;;;3.22;50.13;97610.41;6045893;23;20026;-81
2021/12/03 02:47:29;;;;;;;17.60;3.72;;;3.30;98.50;;;3.21;50.61;97614.97;6047314;23;20018;-81
2021/12/03 02:49:56;;;;;;;10.20;3.83;;;3.20;98.90;;;3.23;49.89;97620.91;6045771;23;20106;-81
2021/12/03 02:52:22;;;;;;;12.80;3.53;;;3.20;98.50;;;3.22;50.16;97610.41;6069057;23;20043;-81
2021/12/03 02:54:47;;;;;;;7.60;3.42;;;3.20;98.50;;;3.10;50.42;97621.28;6044348;23;20096;-81
2021/12/03 02:57:14;;;;;;;9.73;3.58;;;3.20;98.50;;;3.03;50.38;97618.84;6021346;23;20769;-81
2021/12/03 02:59:39;;;;;;;10.20;3.63;;;3.10;98.50;;;2.91;51.06;97620.06;6045911;23;20089;-80
2021/12/03 03:02:05;;;;;;;9.85;3.88;;;3.00;99.00;;;2.88;51.52;97618.69;6045934;23;20027;-81
2021/12/03 03:04:31;;;;;;;9.63;3.45;;;3.00;99.10;;;2.83;50.97;97624.81;6045909;23;20046;-80
2021/12/03 03:06:57;;;;;;;9.07;2.85;;;3.00;99.10;;;2.88;50.75;97615.22;6044870;23;20053;-80
2021/12/03 03:09:24;;;;;;;12.32;2.58;;;3.00;98.80;;;2.87;51.28;97619.72;6069381;23;20451;-80
2021/12/03 03:11:50;;;;;;;9.27;3.65;;;2.90;99.00;;;2.80;51.19;97630.66;6045488;23;20451;-81
2021/12/03 03:14:16;;;;;;;8.48;3.58;;;2.80;99.20;;;2.75;51.82;97627.94;6045592;23;20044;-80
2021/12/03 03:16:42;;;;;;;6.45;3.22;;;2.80;99.50;;;2.65;51.92;97629.69;6071301;23;20047;-81
2021/12/03 03:19:22;;;;;;;7.05;2.50;;;2.70;99.80;;;2.66;52.63;97634.78;6047590;23;20053;-80
2021/12/03 03:21:48;;;;;;;11.98;3.72;;;2.70;99.90;;;2.65;52.28;97645.75;6059669;23;20387;-81
2021/12/03 03:24:15;;;;;;;5.72;3.13;;;2.60;99.90;;;2.63;52.69;97639.84;6047760;23;20102;-81
2021/12/03 03:26:42;;;;;;;7.05;3.10;;;2.60;99.90;;;2.52;52.50;97655.78;6024198;23;20097;-81
2021/12/03 03:29:10;;;;;;;10.50;3.10;;;2.50;99.90;;;2.42;53.22;97655.66;6024422;23;20462;-80
2021/12/03 03:31:38;;;;;;;9.07;5.10;;;2.50;99.90;;;2.41;52.90;97659.38;6047724;23;20030;-81
2021/12/03 03:34:04;;;;;;;10.30;3.00;;;2.50;99.90;;;2.39;53.45;97654.31;6046871;23;20105;-81
2021/12/03 03:36:38;;;;;;;4.47;2.38;;;2.40;99.90;;;2.34;53.38;97643.53;6070767;23;20344;-80
2021/12/03 03:39:07;;;;;;;7.03;2.70;;;2.40;99.90;;;2.36;53.16;97667.34;6022899;23;20023;-80
2021/12/03 03:41:33;;;;;;;4.07;2.55;;;2.40;99.90;;;2.46;53.55;97674.69;6047341;23;20022;-81
2021/12/03 03:43:58;;;;;;;7.35;2.50;;;2.50;99.90;;;2.48;53.36;97664.56;6046421;23;20048;-81
2021/12/03 03:46:25;;;;;;;4.60;2.85;;;2.50;99.90;;;2.52;53.58;97674.53;6045101;23;20046;-81
2021/12/03 03:48:51;;;;;;;5.57;3.22;;;2.60;99.90;;;2.54;53.39;97688.44;6041057;23;20427;-81
2021/12/03 03:51:17;;;;;;;7.10;3.13;;;2.60;99.90;;;2.66;52.43;97688.34;6042148;23;20023;-81
2021/12/03 03:53:43;;;;;;;10.93;2.83;;;2.70;99.90;;;2.69;54.12;97695.06;6040905;23;20057;-80
2021/12/03 03:56:10;;;;;;;7.60;3.25;;;2.70;99.90;;;2.70;53.31;97688.66;6041764;23;20460;-80
2021/12/03 03:58:37;;;;;;;7.90;2.10;;;2.80;99.90;;;2.73;53.30;97698.88;6065715;23;20019;-80
2021/12/03 04:01:05;;;;;;;9.50;3.70;;;2.80;99.90;;;2.81;52.70;97701.91;6020028;23;20293;-80
2021/12/03 04:03:31;;;;;;;8.15;3.08;;;2.80;99.90;;;2.81;52.59;97701.09;6041800;23;20046;-80
2021/12/03 04:05:59;;;;;;;5.43;2.60;;;2.90;99.90;;;2.82;53.45;97708.91;6041535;23;20015;-81
2021/12/03 04:08:29;;;;;;;8.70;3.60;;;2.80;99.90;;;2.91;53.07;97705.78;6042037;23;20019;-81
2021/12/03 04:10:59;;;;;;;11.10;3.67;;;2.90;99.90;;;2.92;52.13;97712.72;6040912;23;20023;-81
2021/12/03 04:13:26;;;;;;;7.70;3.40;;;2.90;99.90;;;2.95;53.40;97721.09;6041429;23;20082;-81
2021/12/03 04:15:52;;;;;;;12.65;3.70;;;3.00;99.90;;;2.91;52.74;97721.84;6041688;23;20050;-81
2021/12/03 04:18:19;;;;;;;11.52;3.75;;;3.00;99.90;;;2.85;54.11;97725.50;6040882;23;20019;-81
2021/12/03 04:20:45;;;;;;;8.73;3.22;;;2.90;99.90;;;2.88;53.38;97735.75;6065485;23;20023;-81
2021/12/03 04:23:16;;;;;;;8.02;3.78;;;2.90;99.90;;;2.88;53.39;97738.41;6043264;23;20129;-81
2021/12/03 04:25:42;;;;;;;5.80;3.15;;;2.90;99.90;;;2.88;52.83;97738.41;6053111;23;20065;-81
2021/12/03 04:28:08;;;;;;;3.30;2.60;;;2.90;99.90;;;2.92;52.74;97748.34;6019160;23;20027;-80
2021/12/03 04:30:34;;;;;;;11.82;3.85;;;2.90;99.90;;;2.93;52.51;97765.25;6071470;23;20076;-80
2021/12/03 04:33:00;;;;;;;8.52;3.50;;;3.00;99.90;;;2.93;52.39;97762.59;6047530;23;20019;-80
2021/12/03 04:35:26;;;;;;;5.43;2.80;;;3.00;99.90;;;2.95;52.67;97763.97;6045702;23;20109;-81
2021/12/03 04:37:53;;;;;;;5.22;2.25;;;3.00;99.90;;;3.01;52.81;97765.63;6068235;23;20170;-80
2021/12/03 04:40:21;;;;;;;11.43;3.45;;;3.10;99.90;;;2.98;52.69;97768.81;6043693;23;20122;-81
2021/12/03 04:42:47;;;;;;;9.23;2.85;;;3.10;99.90;;;2.94;52.33;97764.19;6042304;23;20023;-80
2021/12/03 04:45:15;;;;;;;6.50;3.20;;;3.10;99.90;;;2.83;53.18;97777.47;6043203;23;20663;-81
2021/12/03 04:47:42;;;;;;;4.57;1.83;;;3.00;99.90;;;2.67;53.41;97775.66;6041452;23;20493;-80
2021/12/03 04:50:10;;;;;;;5.75;2.10;;;2.80;99.90;;;2.47;54.40;97789.56;6040172;23;20103;-80
2021/12/03 04:52:37;;;;;;;3.85;2.08;;;2.70;99.90;;;2.37;54.77;97789.41;6064721;23;20034;-80
2021/12/03 04:55:04;;;;;;;6.00;2.22;;;2.50;99.90;;;2.43;55.00;97788.44;6041105;23;20019;-80
2021/12/03 04:57:30;;;;;;;7.82;2.75;;;2.40;99.90;;;2.43;54.73;97796.44;6064947;23;20025;-80
2021/12/03 04:59:57;;;;;;;7.13;3.42;;;2.40;99.90;;;2.42;53.98;97789.50;6066046;23;20023;-80
2021/12/03 05:02:25;;;;;;;3.88;2.70;;;2.40;99.90;;;2.51;53.82;97779.97;6043227;23;20022;-81
2021/12/03 05:04:54;;;;;;;9.38;3.40;;;2.50;99.90;;;2.59;53.53;97790.25;6043792;23;20023;-80
2021/12/03 05:10:07;;;;;;;4.60;2.72;;;2.60;99.90;;;2.76;52.23;97786.75;6077754;23;20042;-80
2021/12/03 05:12:33;;;;;;;7.63;2.25;;;2.70;99.90;;;2.75;52.64;97799.31;6045192;23;20340;-80
2021/12/03 05:14:59;;;;;;;6.00;2.20;;;2.70;99.90;;;2.71;52.38;97792.81;6046868;23;20019;-80
2021/12/03 05:17:25;;;;;;;5.38;2.90;;;2.70;99.90;;;2.79;52.81;97784.34;6045365;23;20023;-80
2021/12/03 05:19:52;;;;;;;11.38;3.78;;;2.80;99.90;;;2.82;52.60;97802.63;6020156;23;20559;-80
2021/12/03 05:22:17;;;;;;;16.27;4.93;;;2.80;99.90;;;2.76;52.33;97797.44;6042908;23;20046;-80
2021/12/03 05:24:47;;;;;;;10.15;3.50;;;2.80;99.90;;;2.80;52.46;97806.63;6041057;23;20019;-80
2021/12/03 05:27:19;;;;;;;9.45;3.40;;;2.80;99.90;;;2.77;52.68;97824.00;6042326;23;20439;-81
2021/12/03 05:29:47;;;;;;;8.52;4.53;;;2.80;99.90;;;2.77;53.19;97815.97;6041581;23;20030;-80
2021/12/03 05:32:13;;;;;;;11.30;4.70;;;2.80;99.90;;;2.79;53.01;97826.41;6040877;23;20043;-80
2021/12/03 05:34:39;;;;;;;8.93;4.72;;;2.80;99.90;;;2.75;53.45;97826.09;6039288;23;20073;-80
2021/12/03 05:37:08;;;;;;;17.15;5.47;;;2.80;99.90;;;2.75;53.09;97825.31;6039304;23;20459;-81
2021/12/03 05:39:35;;;;;;;9.52;3.88;;;2.80;99.90;;;2.83;53.16;97836.38;6038425;23;20457;-84
2021/12/03 05:42:01;;;;;;;11.10;4.90;;;2.80;99.90;;;2.81;53.00;97835.00;6039080;23;20518;-80
2021/12/03 05:44:29;;;;;;;11.40;5.32;;;2.90;99.90;;;2.82;53.02;97832.09;6041178;23;20023;-81
2021/12/03 05:46:57;;;;;;;10.88;5.43;;;2.90;99.90;;;2.88;53.74;97843.69;6017081;23;20422;-81
2021/12/03 05:49:26;;;;;;;15.68;6.07;;;2.90;99.90;;;2.87;53.52;97849.28;6040010;23;20404;-81
2021/12/03 05:51:51;;;;;;;10.05;4.50;;;2.90;99.90;;;2.81;53.68;97856.44;6040351;23;20058;-81
2021/12/03 05:54:19;;;;;;;9.75;4.60;;;2.90;99.90;;;2.76;53.79;97857.16;6040412;23;20027;-82
2021/12/03 05:56:45;;;;;;;11.57;4.60;;;2.90;99.90;;;2.81;54.00;97854.56;6041317;23;20439;-82
2021/12/03 05:59:11;;;;;;;13.18;5.57;;;2.90;99.90;;;2.85;53.35;97860.25;6018606;23;20090;-82
2021/12/03 06:01:36;;;;;;;11.50;4.18;;;2.90;99.90;;;2.84;53.78;97861.28;6039236;23;20050;-80
2021/12/03 06:04:03;;;;;;;13.20;5.90;;;2.90;99.90;;;2.82;53.54;97864.25;6039591;23;20098;-80
2021/12/03 06:06:28;;;;;;;20.52;7.15;;;2.90;99.90;;;2.82;53.91;97861.56;6039348;23;20062;-81
2021/12/03 06:08:57;;;;;;;12.68;4.88;;;2.90;99.90;;;2.85;53.75;97873.66;6015920;23;20074;-81
2021/12/03 06:11:27;;;;;;;13.18;6.10;;;2.90;99.90;;;2.80;54.34;97873.56;6040163;23;20134;-81
2021/12/03 06:13:53;;;;;;;10.02;5.00;;;2.90;99.90;;;2.77;53.63;97877.56;6015388;23;20380;-81
2021/12/03 06:16:19;;;;;;;10.07;4.93;;;2.90;99.90;;;2.61;54.33;97884.53;6036236;23;20025;-81
2021/12/03 06:18:45;;;;;;;10.68;5.20;;;2.80;99.90;;;2.45;54.27;97893.38;6039233;23;20518;-81
2021/12/03 06:21:11;;;;;;;12.75;6.30;;;2.60;99.90;;;2.38;55.29;97895.41;6040256;23;20090;-81
2021/12/03 06:23:38;;;;;;;14.15;6.75;;;2.50;99.90;;;2.24;55.38;97910.97;6040202;23;20052;-81
2021/12/03 06:26:08;;;;;;;11.02;5.75;;;2.40;99.90;;;2.08;55.73;97914.41;6041302;23;20443;-81
2021/12/03 06:28:35;;;;;;;13.57;6.43;;;2.30;99.90;;;1.95;56.82;97920.88;6040698;23;20041;-81
2021/12/03 06:31:01;;;;;;;13.18;6.13;;;2.20;99.90;;;1.84;57.41;97919.88;6040322;23;20090;-81
2021/12/03 06:33:28;;;;;;;11.75;5.00;;;2.00;99.90;;;1.76;57.59;97922.94;6041124;23;20394;-81
2021/12/03 06:35:54;;;;;;;10.95;6.38;;;2.00;99.90;;;1.66;57.98;97928.09;6041287;23;20071;-81
2021/12/03 06:38:20;;;;;;;11.93;5.32;;;1.90;99.90;;;1.66;58.04;97931.56;6050922;23;20089;-81
2021/12/03 06:40:46;;;;;;;13.52;6.53;;;1.80;99.90;;;1.68;58.02;97934.00;6063263;23;20857;-81
2021/12/03 06:43:12;;;;;;;11.02;5.93;;;1.80;99.90;;;1.69;57.74;97932.97;6017414;23;20466;-81
2021/12/03 06:45:38;;;;;;;17.60;6.63;;;1.80;99.90;;;1.67;58.06;97929.72;6016616;23;20046;-81
2021/12/03 06:48:04;;;;;;;13.57;6.80;;;1.80;99.90;;;1.66;57.83;97931.56;6040458;23;20062;-81
2021/12/03 06:50:32;;;;;;;14.57;6.28;;;1.80;99.90;;;1.60;58.19;97937.84;6013361;23;20051;-81
2021/12/03 06:53:10;;;;;;;13.15;6.10;;;1.70;99.90;;;1.53;58.56;97939.88;6037324;23;20462;-81
2021/12/03 06:56:04;;;;;;;14.27;6.43;;;1.70;99.90;;;1.47;58.51;97938.13;6041394;23;20478;-81
2021/12/03 06:58:23;;;;;;;16.90;6.57;;;1.70;99.90;;;1.44;59.19;97949.28;6042711;23;20404;-82
2021/12/03 07:00:54;;;;;;;17.92;6.32;;;1.60;99.90;;;1.48;59.30;97955.81;6017110;23;20392;-82
2021/12/03 07:03:20;;;;;;;21.52;7.85;;;1.60;99.90;;;1.46;59.72;97958.69;6038997;23;20505;-83
2021/12/03 07:05:46;;;;;;;24.73;8.82;;;1.60;99.90;;;1.48;59.24;97961.94;6041375;23;20023;-81
2021/12/03 07:08:12;;;;;;;21.67;8.73;;;1.60;99.90;;;1.52;59.61;97963.09;6040289;23;20022;-82
2021/12/03 07:10:38;;;;;;;17.77;7.53;;;1.60;99.90;;;1.61;59.80;97976.13;6039064;23;20025;-82
2021/12/03 07:13:07;;;;;;;19.33;7.68;;;1.70;99.90;;;1.80;59.45;97974.88;6038694;23;20023;-82
2021/12/03 07:15:33;;;;;;;16.05;7.88;;;1.80;99.90;;;1.94;59.17;97981.59;6039995;23;20447;-82
2021/12/03 07:18:00;;;;;;;13.52;6.80;;;2.00;99.90;;;2.08;58.54;97987.47;6038916;23;20372;-81
2021/12/03 07:20:26;;;;;;;20.05;9.73;;;2.10;99.90;;;2.21;57.88;97983.69;6037856;23;20337;-81
2021/12/03 07:22:52;;;;;;;21.15;6.80;;;2.30;99.90;;;2.29;57.93;97985.16;6039266;23;20406;-81
2021/12/03 07:25:18;;;;;;;13.50;6.22;;;2.40;99.90;;;2.34;57.43;97991.44;6039288;23;20018;-81
2021/12/03 07:27:45;;;;;;;20.85;7.07;;;2.40;99.90;;;2.42;58.02;97998.28;6038348;23;20457;-81
2021/12/03 07:30:14;;;;;;;27.15;8.77;;;2.50;99.90;;;2.48;57.76;98007.19;6038306;23;20042;-81
2021/12/03 07:32:40;;;;;;;19.52;7.68;;;2.60;99.90;;;2.56;57.90;97998.78;6039105;23;20340;-81
2021/12/03 07:35:06;;;;;;;21.83;7.82;;;2.60;99.90;;;2.68;57.75;98012.91;6016651;23;20046;-82
2021/12/03 07:37:32;;;;;;;17.08;8.40;;;2.80;99.90;;;2.66;57.60;98003.50;6038265;23;20094;-81
2021/12/03 07:40:04;;;;;;;27.17;9.30;;;2.80;99.90;;;2.66;57.40;98009.66;6063438;23;20110;-81
2021/12/03 07:42:34;;;;;;;18.52;8.40;;;2.80;99.90;;;2.62;57.66;98019.25;6049102;23;20533;-81
2021/12/03 07:45:01;;;;;;;20.35;9.65;;;2.80;99.90;;;2.55;57.76;98026.59;6040286;23;20118;-81
2021/12/03 07:47:27;;;;;;;14.65;8.35;;;2.80;99.90;;;2.58;57.70;98028.78;6016603;23;20030;-81
2021/12/03 07:49:53;;;;;;;19.70;8.73;;;2.70;99.90;;;2.61;58.18;98029.13;6039703;23;20018;-81
2021/12/03 07:52:20;;;;;;;18.13;8.07;;;2.80;99.90;;;2.69;58.08;98024.41;6040942;23;20413;-81
2021/12/03 07:54:47;;;;;;;20.63;9.77;;;2.90;99.90;;;2.78;57.44;98034.50;6040509;23;20081;-81
2021/12/03 07:57:14;;;;;;;17.30;8.68;;;2.90;99.90;;;2.80;57.71;98045.00;6039106;23;20022;-81
2021/12/03 07:59:40;;;;;;;31.08;10.02;;;3.00;99.90;;;2.95;57.24;98049.75;6040445;23;20026;-81
2021/12/03 08:02:06;;;;;;;20.33;8.25;;;3.10;99.90;;;3.04;56.80;98049.13;6041731;23;20018;-81
2021/12/03 08:04:32;;;;;;;16.70;8.10;;;3.20;99.90;;;3.10;56.61;98052.69;6040247;23;20407;-81
2021/12/03 08:07:00;;;;;;;18.70;7.07;;;3.30;99.90;;;3.15;56.05;98058.13;5993528;23;20023;-81
2021/12/03 08:09:26;;;;;;;20.75;8.25;;;3.30;99.90;;;3.15;55.83;98065.38;6041545;23;20027;-82
2021/12/03 08:11:52;;;;;;;16.70;6.18;;;3.30;99.90;;;3.06;54.29;98059.63;6064990;23;20022;-81
2021/12/03 08:14:18;;;;;;;10.68;5.88;;;3.30;99.90;;;3.07;54.10;98066.59;6016304;23;20065;-81
2021/12/03 08:16:44;;;;;;;13.40;5.97;;;3.30;99.90;;;3.15;54.53;98082.25;6015836;23;20039;-81
2021/12/03 08:19:10;;;;;;;21.25;6.03;;;3.40;99.90;;;3.15;53.64;98066.19;6039746;23;20045;-81
2021/12/03 08:21:36;;;;;;;13.00;6.60;;;3.40;99.90;;;3.18;53.99;98073.75;6039768;23;20043;-81
2021/12/03 08:24:03;;;;;;;15.32;5.45;;;3.40;99.90;;;3.34;53.64;98080.16;6040531;23;20023;-81
2021/12/03 08:26:29;;;;;;;21.85;7.07;;;3.50;99.90;;;3.42;53.89;98082.44;6039199;23;20015;-81
2021/12/03 08:28:55;;;;;;;18.30;7.32;;;3.60;99.90;;;3.51;54.04;98084.69;6063633;23;20043;-81
2021/12/03 08:31:21;;;;;;;15.50;7.85;;;3.70;99.90;;;3.59;54.35;98070.88;6039236;23;20030;-81
2021/12/03 08:33:47;;;;;;;17.55;6.93;;;3.70;99.90;;;3.78;53.86;98087.50;6039952;23;20023;-81
2021/12/03 08:36:14;;;;;;;14.65;8.10;;;3.90;99.90;;;3.89;53.88;98090.09;6038003;23;20050;-81
2021/12/03 08:38:40;;;;;;;14.45;6.57;;;4.10;99.90;;;3.90;53.29;98090.91;6038690;23;20445;-81
2021/12/03 08:41:09;;;;;;;15.93;7.03;;;4.20;99.90;;;3.92;53.68;98100.31;6040182;23;20097;-81
2021/12/03 08:43:35;;;;;;;13.65;5.25;;;4.30;99.90;;;4.12;52.36;98096.28;6062688;23;20014;-81
2021/12/03 08:46:09;;;;;;;11.23;5.68;;;4.40;99.90;;;4.26;51.95;98118.22;6038774;23;20494;-81
2021/12/03 08:48:38;;;;;;;14.52;6.18;;;4.50;99.90;;;4.29;51.64;98115.81;6050947;23;20039;-81
2021/12/03 08:56:28;;;;;;;12.40;5.03;;;4.70;99.90;;;4.27;50.68;98130.56;6052384;23;20027;-81
2021/12/03 08:58:54;;;;;;;10.50;4.93;;;4.60;99.50;;;4.11;50.65;98132.22;6063267;23;20042;-81
2021/12/03 09:01:19;;;;;;;10.50;5.03;;;4.60;99.10;;;4.17;51.37;98143.84;6039687;23;20025;-81
2021/12/03 09:03:46;;;;;;;12.38;6.57;;;4.50;99.80;;;4.25;50.64;98143.41;6039952;23;20097;-81
2021/12/03 09:06:12;;;;;;;12.35;5.55;;;4.50;99.70;;;4.34;51.18;98158.03;6039670;23;20043;-81
2021/12/03 09:08:37;;;;;;;11.57;6.60;;;4.60;99.80;;;4.30;50.08;98152.38;6063040;23;20023;-81
2021/12/03 09:11:05;;;;;;;13.07;5.63;;;4.60;99.20;;;4.29;50.75;98155.28;6064329;23;20441;-81
2021/12/03 09:13:31;;;;;;;13.82;5.65;;;4.60;99.30;;;4.37;50.84;98162.09;6063157;23;20046;-81
2021/12/03 09:16:04;;;;;;;8.85;4.47;;;4.60;99.70;;;4.32;49.72;98171.69;6039684;23;20018;-81
2021/12/03 09:18:33;;;;;;;10.98;4.28;;;4.70;98.70;;;4.32;49.56;98165.53;6063885;23;20053;-81
2021/12/03 09:21:04;;;;;;;6.45;3.88;;;4.60;98.40;;;4.35;48.98;98168.53;6041383;23;20023;-81
2021/12/03 09:23:40;;;;;;;6.97;3.75;;;4.60;98.30;;;4.27;48.70;98171.63;6050626;23;20026;-81
2021/12/03 09:26:12;;;;;;;12.57;4.45;;;4.60;98.00;;;4.06;49.59;98143.72;6053512;23;20030;-81
2021/12/03 09:28:40;;;;;;;6.80;4.25;;;4.40;98.20;;;4.09;49.43;98171.91;6040953;23;20019;-81
2021/12/03 09:31:07;;;;;;;9.88;4.60;;;4.40;97.90;;;4.27;49.56;98173.50;6063442;23;20489;-81
2021/12/03 09:33:35;;;;;;;7.30;3.63;;;4.40;98.40;;;4.35;48.89;98167.72;6039438;23;20094;-81
2021/12/03 09:36:03;;;;;;;10.05;4.40;;;4.60;98.00;;;4.40;49.00;98166.97;6037922;23;20019;-81
2021/12/03 09:38:33;;;;;;;8.95;4.60;;;4.60;98.00;;;4.44;49.10;98163.53;6048812;23;20050;-81
2021/12/03 09:41:06;;;;;;;10.90;5.13;;;4.70;97.90;;;4.46;49.25;98171.34;6015816;23;20451;-81
2021/12/03 09:43:39;;;;;;;7.75;4.38;;;4.70;98.10;;;4.60;50.00;98174.47;6049830;23;20097;-81
2021/12/03 09:46:18;;;;;;;10.15;4.78;;;4.80;98.40;;;4.69;48.69;98165.72;6038863;23;20023;-81
2021/12/03 09:56:44;;;;;;;10.32;4.88;;;5.20;97.10;;;5.08;46.78;98178.25;6050472;23;20447;-81
2021/12/03 10:16:04;;;;;;;9.82;4.50;;;4.70;95.80;;;4.10;48.00;98152.91;6072064;23;20018;-81
2021/12/03 10:18:55;;;;;;;12.25;4.93;;;4.40;96.20;;;3.94;48.13;98153.72;6050555;23;20106;-81
2021/12/03 10:22:17;;;;;;;17.08;6.00;;;4.30;96.40;;;3.71;48.02;98162.78;6022665;23;20034;-81
2021/12/03 10:43:35;;;;;;;8.07;5.30;;;4.90;96.90;;;4.65;46.33;98135.03;6040807;23;20053;-82
2021/12/03 11:00:28;;;;;;;13.02;5.80;;;4.50;94.60;;;4.29;45.82;98125.75;6070637;23;20025;-81
2021/12/03 11:37:55;;;;;;;15.35;4.38;;;4.30;94.30;;;4.27;44.76;98160.09;6037902;23;20030;-81
2021/12/03 12:24:40;;;;;;;11.60;4.43;;;4.40;91.00;;;4.43;42.11;98140.44;6051020;23;20034;-81
2021/12/03 12:56:35;;;;;;;17.83;4.85;;;4.40;90.80;;;4.31;42.65;98163.91;6052841;23;20041;-81
2021/12/03 13:09:16;;;;;;;9.90;4.28;;;4.30;91.40;;;4.12;43.24;98187.53;6052333;23;20019;-81
2021/12/03 14:25:04;;;;;;;15.98;6.80;;;2.80;93.60;;;2.53;47.01;98238.34;6043276;23;20431;-80
2021/12/03 14:43:10;;;;;;;15.98;6.35;;;1.90;95.00;;;1.81;49.00;98261.84;6053140;23;20236;-82
2021/12/03 14:48:30;;;;;;;24.67;7.80;;;1.70;95.30;;;1.66;49.91;98267.63;6073643;23;20063;-82
2021/12/03 14:54:16;;;;;;;21.90;8.52;;;1.50;95.70;;;1.38;50.36;98271.72;6073915;23;20435;-82
2021/12/03 14:56:33;;;;;;;21.83;9.18;;;1.40;96.00;;;1.29;50.43;98267.72;6043669;23;20109;-82
2021/12/03 14:59:09;;;;;;;25.63;8.90;;;1.30;96.10;;;1.19;51.20;98267.47;6051872;23;20046;-82
2021/12/03 15:01:50;;;;;;;17.85;8.00;;;1.20;96.50;;;1.09;51.42;98262.66;6049715;23;20019;-81
2021/12/03 15:09:36;;;;;;;26.95;9.32;;;0.90;97.00;;;0.76;52.77;98271.06;6050657;23;20049;-82
2021/12/03 15:23:01;;;;;;;41.08;17.80;;;0.50;98.00;;;0.47;53.88;98281.44;6052692;23;20053;-81
2021/12/03 15:28:46;;;;;;;31.73;13.23;;;0.40;98.20;;;0.36;54.04;98292.84;6062204;23;20054;-81